Time;durP1;ratioP1;P1;durP2;ratioP2;P2;SDS_P1;SDS_P2;PMS_P1;PMS_P2;Temp;Humidity;BMP_temperature;BMP_pressure;BME280_temperature;BME280_humidity;BME280_pressure;Samples;Min_cycle;Max_cycle;Signal;HPM_P1;HPM_P2
2024/04/25 00:00:55;;;;;;;2.38;1.70;;;;;;;3.32;65.71;91840.22;2068182;69;20149;-71
2024/04/25 00:03:21;;;;;;;3.25;2.13;;;;;;;3.39;65.84;91849.75;2068177;69;20218;-70
2024/04/25 00:05:47;;;;;;;2.60;1.60;;;;;;;3.37;65.94;91846.81;2067869;69;20153;-72
2024/04/25 00:08:13;;;;;;;2.53;1.60;;;;;;;3.38;65.29;91853.84;2068226;69;20585;-71
2024/04/25 00:10:39;;;;;;;2.83;1.60;;;;;;;3.29;65.10;91833.03;2068129;69;20230;-71
2024/04/25 00:13:05;;;;;;;2.20;1.70;;;;;;;3.37;65.55;91857.94;2068401;69;20176;-71
2024/04/25 00:15:31;;;;;;;1.67;1.55;;;;;;;3.48;65.18;91854.56;2068141;69;20183;-71
2024/04/25 00:17:57;;;;;;;1.92;1.48;;;;;;;3.52;65.53;91854.88;2068161;69;20228;-70
2024/04/25 00:20:23;;;;;;;3.95;1.83;;;;;;;3.12;68.19;91847.84;2067956;69;20155;-71
2024/04/25 00:22:49;;;;;;;4.43;2.20;;;;;;;3.20;67.32;91861.59;2068151;69;20125;-70
2024/04/25 00:25:15;;;;;;;4.57;2.42;;;;;;;3.56;66.25;91857.94;2068085;69;20172;-70
2024/04/25 00:27:41;;;;;;;3.13;2.20;;;;;;;3.68;66.03;91858.84;2068361;69;20620;-70
2024/04/25 00:30:07;;;;;;;5.18;2.90;;;;;;;3.54;66.55;91855.75;2068157;69;20216;-72
2024/04/25 00:32:33;;;;;;;3.22;2.17;;;;;;;3.50;67.05;91849.91;2071430;69;20188;-69
2024/04/25 00:35:00;;;;;;;5.05;2.45;;;;;;;3.64;66.32;91835.53;2071578;69;20240;-72
2024/04/25 00:37:26;;;;;;;3.65;2.40;;;;;;;3.69;66.65;91831.72;2071378;69;20471;-71
2024/04/25 00:39:54;;;;;;;2.55;2.10;;;;;;;3.69;66.36;91821.31;2071473;69;20193;-73
2024/04/25 00:42:21;;;;;;;4.80;2.10;;;;;;;3.78;66.21;91826.16;2071611;69;20168;-72
2024/04/25 00:44:48;;;;;;;2.90;1.80;;;;;;;3.77;66.83;91824.69;2071691;69;20563;-72
2024/04/25 00:47:17;;;;;;;3.33;1.75;;;;;;;3.62;66.75;91818.69;2071399;69;20534;-72
2024/04/25 00:49:44;;;;;;;2.58;2.00;;;;;;;3.80;66.13;91820.75;2071717;69;20148;-71
2024/04/25 00:52:12;;;;;;;3.30;1.90;;;;;;;3.80;66.22;91812.38;2071630;69;20167;-75
2024/04/25 00:54:38;;;;;;;2.25;1.80;;;;;;;3.60;65.93;91793.50;2071975;69;20166;-71
2024/04/25 00:57:07;;;;;;;2.50;1.88;;;;;;;3.77;66.47;91819.13;2071937;69;20159;-69
2024/04/25 00:59:36;;;;;;;4.28;2.10;;;;;;;3.67;66.06;91826.75;2068743;69;20149;-69
2024/04/25 01:02:06;;;;;;;3.40;1.70;;;;;;;3.48;66.52;91818.41;2071999;69;20239;-70
2024/04/25 01:04:34;;;;;;;2.00;1.73;;;;;;;3.30;67.27;91823.41;2072353;69;20136;-69
2024/04/25 01:07:01;;;;;;;2.55;1.98;;;;;;;3.49;66.46;91803.91;2072151;69;20285;-70
2024/04/25 01:09:27;;;;;;;3.33;2.00;;;;;;;3.17;68.18;91812.72;2072058;69;20123;-70
2024/04/25 01:11:52;;;;;;;2.97;2.00;;;;;;;3.47;67.34;91812.09;2072139;69;20152;-70
2024/04/25 01:14:18;;;;;;;1.85;1.67;;;;;;;3.52;66.27;91819.44;2071850;69;20536;-73
2024/04/25 01:16:43;;;;;;;2.15;1.90;;;;;;;3.46;67.09;91824.56;2068612;69;20136;-71
2024/04/25 01:19:09;;;;;;;2.30;1.63;;;;;;;3.50;66.87;91813.72;2072013;69;20582;-73
2024/04/25 01:21:35;;;;;;;2.45;1.63;;;;;;;3.19;66.67;91794.09;2072202;69;20136;-71
2024/04/25 01:24:03;;;;;;;2.13;1.63;;;;;;;3.47;66.11;91808.59;2072112;69;20237;-72
2024/04/25 01:26:29;;;;;;;1.75;1.35;;;;;;;3.62;65.39;91822.22;2072122;69;20153;-72
2024/04/25 01:28:57;;;;;;;6.07;1.55;;;;;;;3.45;66.76;91814.03;2071897;69;20531;-72
2024/04/25 01:31:24;;;;;;;2.55;2.00;;;;;;;3.27;67.10;91814.16;2071803;69;20148;-71
2024/04/25 01:33:51;;;;;;;3.38;2.15;;;;;;;3.20;67.31;91801.13;2072169;69;20574;-71
2024/04/25 01:36:18;;;;;;;2.53;2.08;;;;;;;3.22;67.18;91806.13;2071994;69;20160;-72
2024/04/25 01:38:44;;;;;;;1.90;1.70;;;;;;;3.33;67.10;91807.56;2068696;69;20148;-71
2024/04/25 01:41:09;;;;;;;3.78;2.03;;;;;;;3.32;66.33;91804.06;2072096;69;20239;-69
2024/04/25 01:43:35;;;;;;;1.92;1.60;;;;;;;3.37;67.23;91802.31;2071895;69;20145;-69
2024/04/25 01:46:00;;;;;;;1.73;1.30;;;;;;;3.26;67.48;91806.41;2071839;69;20590;-70
2024/04/25 01:48:26;;;;;;;1.83;1.23;;;;;;;3.36;67.15;91807.16;2071651;69;20151;-71
2024/04/25 01:50:52;;;;;;;1.50;1.40;;;;;;;3.42;66.59;91802.00;2072053;69;20171;-70
2024/04/25 01:53:17;;;;;;;2.00;1.40;;;;;;;3.40;66.52;91810.22;2072105;69;20148;-71
2024/04/25 01:55:43;;;;;;;3.10;1.38;;;;;;;3.41;66.28;91814.47;2072233;69;20148;-71
2024/04/25 01:58:08;;;;;;;2.50;1.58;;;;;;;3.43;66.10;91817.38;2068676;69;20164;-71
2024/04/25 02:00:34;;;;;;;1.48;1.30;;;;;;;3.31;66.39;91794.25;2071792;69;20141;-71
2024/04/25 02:03:00;;;;;;;1.75;1.50;;;;;;;3.38;66.67;91809.31;2071804;69;20164;-70
2024/04/25 02:05:25;;;;;;;4.50;1.90;;;;;;;3.54;65.53;91816.81;2071683;69;20167;-71
2024/04/25 02:07:51;;;;;;;2.22;1.80;;;;;;;3.47;66.93;91812.09;2071633;69;20478;-70
2024/04/25 02:10:16;;;;;;;2.05;1.60;;;;;;;3.45;66.73;91808.47;2071751;69;20610;-73
2024/04/25 02:12:42;;;;;;;2.22;1.65;;;;;;;3.41;66.81;91805.38;2071632;69;20149;-70
2024/04/25 02:15:08;;;;;;;3.63;1.80;;;;;;;3.38;66.63;91801.72;2068307;69;20506;-70
2024/04/25 02:17:37;;;;;;;2.97;1.50;;;;;;;3.45;67.23;91814.75;2071570;69;20159;-70
2024/04/25 02:25:13;;;;;;;2.00;1.60;;;;;;;3.30;67.32;91809.50;2071553;69;20174;-72
2024/04/25 02:25:32;;;;;;;2.03;1.60;;;;;;;3.35;66.82;91799.38;2071938;69;20135;-71
2024/04/25 02:27:58;;;;;;;1.75;1.58;;;;;;;3.37;66.86;91802.31;2071533;69;20140;-72
2024/04/25 02:30:24;;;;;;;2.00;1.65;;;;;;;3.37;67.37;91803.03;2071949;69;20323;-70
2024/04/25 02:32:49;;;;;;;1.60;1.40;;;;;;;3.46;65.60;91796.00;2072157;69;20156;-72
2024/04/25 02:35:15;;;;;;;2.55;1.80;;;;;;;3.31;66.92;91808.91;2072076;69;20182;-71
2024/04/25 02:37:40;;;;;;;3.03;2.05;;;;;;;3.12;68.70;91808.91;2071915;69;20262;-72
2024/04/25 02:40:07;;;;;;;4.03;2.10;;;;;;;3.29;67.38;91808.75;2071983;69;20179;-71
2024/04/25 02:42:32;;;;;;;2.72;1.65;;;;;;;3.25;67.61;91791.78;2071750;69;20140;-70
2024/04/25 02:44:58;;;;;;;3.28;1.73;;;;;;;3.35;67.72;91805.69;2071777;69;20226;-71
2024/04/25 02:47:23;;;;;;;2.75;1.98;;;;;;;3.36;67.56;91807.16;2071716;69;20143;-71
2024/04/25 02:49:49;;;;;;;2.75;1.67;;;;;;;3.28;68.08;91803.78;2068592;69;20233;-71
2024/04/25 02:52:14;;;;;;;2.20;1.80;;;;;;;3.28;67.51;91803.78;2068767;69;20270;-70
2024/04/25 02:54:40;;;;;;;1.98;1.70;;;;;;;3.33;67.73;91813.13;2071993;69;20167;-70
2024/04/25 02:57:06;;;;;;;2.13;1.60;;;;;;;3.44;66.80;91809.78;2072047;69;20185;-71
2024/04/25 02:59:31;;;;;;;1.77;1.60;;;;;;;3.34;67.85;91811.81;2071938;69;20132;-71
2024/04/25 03:01:57;;;;;;;2.70;2.10;;;;;;;3.27;67.60;91810.66;2072051;69;20238;-71
2024/04/25 03:04:22;;;;;;;4.30;2.55;;;;;;;2.88;69.38;91818.94;2072002;69;20575;-71
2024/04/25 03:06:48;;;;;;;4.05;2.60;;;;;;;2.77;69.82;91814.69;2071915;69;20555;-71
2024/04/25 03:09:14;;;;;;;4.65;2.95;;;;;;;2.84;69.50;91815.88;2071940;69;20578;-71
2024/04/25 03:11:39;;;;;;;4.72;2.58;;;;;;;3.04;69.45;91819.41;2071845;69;20163;-71
2024/04/25 03:14:05;;;;;;;5.68;3.47;;;;;;;3.31;68.63;91816.50;2071757;69;20148;-71
2024/04/25 03:16:30;;;;;;;4.65;3.40;;;;;;;3.42;67.45;91823.53;2071570;69;20643;-71
2024/04/25 03:18:56;;;;;;;4.18;2.60;;;;;;;3.44;66.98;91818.88;2072033;69;20574;-70
2024/04/25 03:21:23;;;;;;;6.90;3.00;;;;;;;3.43;67.58;91825.72;2065559;69;20159;-71
2024/04/25 03:23:48;;;;;;;4.20;2.70;;;;;;;3.45;68.60;91828.66;2071817;69;20144;-71
2024/04/25 03:26:14;;;;;;;4.38;2.55;;;;;;;3.51;68.39;91817.22;2071605;69;20153;-72
2024/04/25 03:28:41;;;;;;;4.20;2.60;;;;;;;3.59;67.03;91823.38;2071562;69;20231;-70
2024/04/25 03:31:06;;;;;;;3.35;2.20;;;;;;;3.62;66.94;91821.47;2071409;69;20168;-71
2024/04/25 03:33:32;;;;;;;2.67;2.10;;;;;;;3.62;65.97;91819.44;2071735;69;20237;-73
2024/04/25 03:35:58;;;;;;;2.63;2.30;;;;;;;3.52;65.74;91819.44;2068461;69;20549;-71
2024/04/25 03:38:23;;;;;;;4.10;2.33;;;;;;;3.50;66.97;91824.13;2068426;69;20252;-71
2024/04/25 03:40:49;;;;;;;4.03;3.10;;;;;;;3.44;67.15;91816.09;2072094;69;20116;-71
2024/04/25 03:43:15;;;;;;;4.60;3.47;;;;;;;3.38;67.51;91821.19;2071874;69;20143;-72
2024/04/25 03:45:41;;;;;;;3.33;2.60;;;;;;;3.54;66.64;91814.03;2071413;69;20220;-71
2024/04/25 03:48:06;;;;;;;5.80;5.18;;;;;;;3.35;66.96;91811.25;2071965;69;20155;-70
2024/04/25 03:50:33;;;;;;;4.97;3.22;;;;;;;3.45;66.70;91820.31;2071815;69;20175;-71
2024/04/25 03:52:59;;;;;;;3.45;2.63;;;;;;;3.23;68.21;91815.91;2071931;69;20160;-70
2024/04/25 03:55:25;;;;;;;3.28;1.90;;;;;;;3.53;66.53;91817.41;2071778;69;20148;-72
2024/04/25 03:57:51;;;;;;;2.67;1.90;;;;;;;3.40;65.42;91807.44;2071724;69;20507;-71
2024/04/25 04:00:17;;;;;;;3.90;2.20;;;;;;;3.49;65.41;91806.69;2071793;69;20215;-71
2024/04/25 04:02:42;;;;;;;2.17;1.83;;;;;;;3.53;65.71;91814.63;2071602;69;20217;-71
2024/04/25 04:05:08;;;;;;;3.15;1.80;;;;;;;3.40;66.05;91815.78;2071925;69;20140;-71
2024/04/25 04:07:34;;;;;;;2.10;1.80;;;;;;;2.95;67.27;91820.88;2068256;69;20551;-71
2024/04/25 04:09:59;;;;;;;2.25;1.70;;;;;;;3.09;66.25;91809.31;2071504;69;20147;-71
2024/04/25 04:12:25;;;;;;;2.50;1.70;;;;;;;3.19;65.52;91810.06;2071858;69;20149;-70
2024/04/25 04:14:51;;;;;;;3.80;1.98;;;;;;;2.86;66.13;91804.91;2071954;69;20172;-74
2024/04/25 04:17:16;;;;;;;1.80;1.60;;;;;;;2.98;65.87;91802.31;2068089;69;20573;-74
2024/04/25 04:19:43;;;;;;;2.47;1.85;;;;;;;2.97;65.41;91806.38;2071713;69;20133;-75
2024/04/25 04:22:09;;;;;;;2.60;1.90;;;;;;;2.95;66.65;91806.25;2071800;69;20152;-71
2024/04/25 04:24:34;;;;;;;4.35;2.50;;;;;;;2.98;66.48;91807.88;2068686;69;20174;-71
2024/04/25 04:27:00;;;;;;;8.68;6.15;;;;;;;2.91;67.14;91803.88;2071936;69;20178;-71
2024/04/25 04:29:27;;;;;;;4.03;2.67;;;;;;;2.86;67.60;91804.91;2071976;69;20210;-71
2024/04/25 04:31:52;;;;;;;5.47;4.55;;;;;;;2.83;68.08;91814.41;2072195;69;20570;-71
2024/04/25 04:34:19;;;;;;;3.35;2.70;;;;;;;2.73;67.65;91816.44;2071919;69;20186;-70
2024/04/25 04:36:45;;;;;;;4.47;3.20;;;;;;;3.02;67.04;91813.69;2072212;69;20148;-71
2024/04/25 04:39:11;;;;;;;4.15;2.88;;;;;;;3.01;66.20;91809.47;2068645;69;20171;-69
2024/04/25 04:41:37;;;;;;;3.75;2.00;;;;;;;2.82;66.89;91826.09;2068601;69;20144;-69
2024/04/25 04:44:03;;;;;;;3.10;2.33;;;;;;;3.01;66.07;91832.44;2071989;69;20156;-70
2024/04/25 04:46:29;;;;;;;4.22;3.15;;;;;;;2.66;67.71;91823.59;2072202;69;20216;-71
2024/04/25 04:48:54;;;;;;;3.03;2.17;;;;;;;2.97;66.83;91834.19;2072084;69;20144;-72
2024/04/25 04:51:20;;;;;;;4.53;2.75;;;;;;;2.87;67.85;91833.44;2072117;69;20236;-75
2024/04/25 04:53:47;;;;;;;4.20;2.70;;;;;;;2.77;68.38;91827.84;2072121;69;20148;-71
2024/04/25 04:56:13;;;;;;;2.60;2.03;;;;;;;3.11;67.30;91832.44;2072180;69;20243;-71
2024/04/25 04:58:39;;;;;;;5.28;1.90;;;;;;;2.89;67.59;91839.88;2072205;69;20690;-71
2024/04/25 05:01:05;;;;;;;2.90;2.13;;;;;;;3.16;67.12;91839.03;2071657;69;20148;-72
2024/04/25 05:03:30;;;;;;;2.35;1.98;;;;;;;3.37;66.19;91841.25;2072004;69;20272;-71
2024/04/25 05:05:56;;;;;;;2.92;1.90;;;;;;;3.46;65.82;91832.19;2071990;69;20236;-71
2024/04/25 05:08:22;;;;;;;3.38;2.30;;;;;;;3.62;65.16;91841.72;2071906;69;20191;-72
2024/04/25 05:10:48;;;;;;;3.78;2.95;;;;;;;3.75;65.48;91843.28;2071930;69;20562;-71
2024/04/25 05:13:14;;;;;;;4.70;2.40;;;;;;;3.91;65.53;91838.88;2072189;69;20196;-70
2024/04/25 05:15:40;;;;;;;3.15;2.20;;;;;;;3.91;65.97;91835.38;2071969;69;20255;-70
2024/04/25 05:18:05;;;;;;;4.15;2.10;;;;;;;3.99;65.95;91836.69;2072070;69;20159;-70
2024/04/25 05:20:32;;;;;;;2.35;1.92;;;;;;;3.97;65.71;91825.38;2071648;69;20606;-70
2024/04/25 05:22:57;;;;;;;3.13;1.85;;;;;;;4.12;65.58;91829.16;2072226;69;20140;-75
2024/04/25 05:25:23;;;;;;;2.67;2.10;;;;;;;3.99;65.11;91827.59;2071945;69;20132;-70
2024/04/25 05:27:51;;;;;;;6.32;3.50;;;;;;;3.99;65.25;91833.16;2071998;69;20137;-74
2024/04/25 05:30:22;;;;;;;3.00;2.30;;;;;;;4.19;63.89;91836.63;2072289;69;20148;-70
2024/04/25 05:32:49;;;;;;;4.38;2.55;;;;;;;4.18;64.62;91847.03;2072134;69;20148;-70
2024/04/25 05:35:16;;;;;;;2.58;1.90;;;;;;;4.33;63.72;91832.75;2072097;69;20172;-72
2024/04/25 05:37:42;;;;;;;4.03;2.10;;;;;;;4.45;62.77;91837.72;2072003;69;20155;-70
2024/04/25 05:40:08;;;;;;;4.30;2.75;;;;;;;4.64;61.96;91843.22;2071846;69;20145;-69
2024/04/25 05:42:33;;;;;;;4.13;2.83;;;;;;;4.67;62.84;91830.88;2072088;69;20179;-71
2024/04/25 05:45:00;;;;;;;3.85;2.78;;;;;;;4.86;62.62;91830.06;2071981;69;20235;-71
2024/04/25 05:47:26;;;;;;;5.03;2.58;;;;;;;4.94;62.90;91825.00;2071903;69;20245;-69
2024/04/25 05:49:52;;;;;;;8.70;2.40;;;;;;;5.16;61.82;91822.25;2072023;69;20152;-71
2024/04/25 05:52:19;;;;;;;3.78;2.45;;;;;;;5.26;62.11;91843.16;2071995;69;20544;-69
2024/04/25 05:54:45;;;;;;;2.95;1.90;;;;;;;5.44;61.26;91843.63;2071831;69;20152;-74
2024/04/25 05:57:10;;;;;;;2.25;1.77;;;;;;;5.46;60.77;91848.63;2071961;69;20147;-74
2024/04/25 05:59:37;;;;;;;2.20;1.90;;;;;;;5.19;61.27;91827.38;2068761;69;20183;-74
2024/04/25 06:02:02;;;;;;;2.88;1.80;;;;;;;5.60;59.73;91847.50;2071619;69;20563;-72
2024/04/25 06:04:31;;;;;;;4.05;1.83;;;;;;;5.67;58.88;91839.50;2068507;69;20136;-74
2024/04/25 06:06:57;;;;;;;2.70;2.00;;;;;;;5.83;59.29;91840.56;2072087;69;20149;-72
2024/04/25 06:09:23;;;;;;;2.75;1.70;;;;;;;5.74;58.35;91844.16;2072024;69;20518;-73
2024/04/25 06:11:49;;;;;;;2.35;1.90;;;;;;;5.22;58.18;91840.13;2071730;69;20164;-74
2024/04/25 06:14:15;;;;;;;3.05;2.42;;;;;;;5.18;58.99;91844.69;2068484;69;20179;-76
2024/04/25 06:16:40;;;;;;;12.52;2.85;;;;;;;4.53;59.93;91843.84;2072091;69;20502;-76
2024/04/25 06:19:08;;;;;;;5.32;2.63;;;;;;;4.81;59.90;91853.41;2072031;69;20263;-71
2024/04/25 06:21:34;;;;;;;7.35;2.50;;;;;;;5.46;58.62;91845.84;2071973;69;20164;-73
2024/04/25 06:24:02;;;;;;;5.93;2.60;;;;;;;5.14;57.92;91836.81;2068620;69;20227;-72
2024/04/25 06:26:28;;;;;;;4.47;2.30;;;;;;;5.47;57.63;91828.50;2068732;69;20148;-75
2024/04/25 06:28:54;;;;;;;3.80;2.30;;;;;;;5.70;56.95;91827.16;2071638;69;20174;-74
2024/04/25 06:31:22;;;;;;;3.20;2.35;;;;;;;6.13;56.42;91833.38;2071847;69;20152;-74
2024/04/25 06:33:49;;;;;;;2.95;2.10;;;;;;;6.21;57.33;91830.38;2071885;69;20227;-76
2024/04/25 06:36:14;;;;;;;3.75;2.55;;;;;;;6.05;58.03;91808.47;2072029;69;20172;-73
2024/04/25 06:38:41;;;;;;;4.40;2.05;;;;;;;6.32;56.14;91829.66;2071911;69;20622;-74
2024/04/25 06:41:06;;;;;;;3.40;2.10;;;;;;;6.31;55.82;91833.78;2071907;69;20251;-71
2024/04/25 06:43:32;;;;;;;5.90;2.28;;;;;;;6.49;55.96;91829.34;2068553;69;20168;-71
2024/04/25 06:45:57;;;;;;;2.17;1.85;;;;;;;6.58;55.05;91830.56;2065424;69;20246;-71
2024/04/25 06:48:23;;;;;;;3.20;2.08;;;;;;;6.76;54.68;91826.06;2071952;69;20698;-71
2024/04/25 06:50:49;;;;;;;2.65;1.65;;;;;;;7.07;54.72;91822.31;2071805;69;20155;-71
2024/04/25 06:53:14;;;;;;;3.92;1.50;;;;;;;6.96;53.78;91834.94;2071930;69;20141;-72
2024/04/25 06:55:40;;;;;;;3.00;1.50;;;;;;;6.49;53.62;91814.63;2071941;69;20137;-74
2024/04/25 06:58:06;;;;;;;1.63;1.38;;;;;;;7.08;53.82;91826.56;2068509;69;20128;-73
2024/04/25 07:00:32;;;;;;;1.67;1.48;;;;;;;7.41;53.11;91831.97;2071717;69;20229;-75
2024/04/25 07:02:57;;;;;;;1.35;1.25;;;;;;;7.30;52.59;91836.28;2071935;69;20187;-72
2024/04/25 07:05:23;;;;;;;3.35;1.33;;;;;;;7.30;52.26;91825.06;2072081;69;20452;-73
2024/04/25 07:07:50;;;;;;;2.10;1.40;;;;;;;6.98;51.91;91821.09;2071905;69;20289;-74
2024/04/25 07:10:15;;;;;;;2.30;1.40;;;;;;;7.13;51.20;91828.97;2068746;69;20164;-73
2024/04/25 07:12:41;;;;;;;1.90;1.20;;;;;;;7.06;51.33;91823.66;2071909;69;20561;-72
2024/04/25 07:15:07;;;;;;;2.97;1.35;;;;;;;7.58;51.30;91823.19;2071956;69;20463;-72
2024/04/25 07:17:33;;;;;;;1.50;1.40;;;;;;;7.93;51.81;91822.34;2068196;69;20248;-73
2024/04/25 07:20:00;;;;;;;1.58;1.48;;;;;;;7.97;51.14;91828.19;2071874;69;20559;-72
2024/04/25 07:22:25;;;;;;;3.22;1.55;;;;;;;7.28;51.84;91813.75;2071814;69;20223;-71
2024/04/25 07:24:51;;;;;;;1.50;1.40;;;;;;;6.87;51.22;91816.22;2071845;69;20584;-71
2024/04/25 07:27:17;;;;;;;4.47;1.48;;;;;;;7.05;52.07;91822.16;2071807;69;20155;-71
2024/04/25 07:29:44;;;;;;;2.20;1.50;;;;;;;7.82;50.31;91821.03;2071849;69;20213;-72
2024/04/25 07:32:10;;;;;;;1.50;1.30;;;;;;;7.18;49.75;91818.75;2071586;69;20149;-74
2024/04/25 07:34:36;;;;;;;3.03;1.13;;;;;;;8.11;49.72;91825.44;2071722;69;20155;-75
2024/04/25 07:37:02;;;;;;;4.03;1.50;;;;;;;8.29;50.07;91828.50;2071809;69;20148;-73
2024/04/25 07:39:27;;;;;;;2.38;1.55;;;;;;;8.31;49.50;91825.81;2068549;69;20646;-73
2024/04/25 07:41:53;;;;;;;2.42;1.60;;;;;;;8.37;49.66;91823.38;2068402;69;20233;-74
2024/04/25 07:44:18;;;;;;;1.85;1.70;;;;;;;8.70;49.00;91825.84;2071924;69;20180;-73
2024/04/25 07:46:44;;;;;;;2.20;1.70;;;;;;;8.77;48.90;91818.50;2071638;69;20177;-73
2024/04/25 07:49:12;;;;;;;1.83;1.40;;;;;;;8.36;48.73;91811.44;2071654;69;20156;-75
2024/04/25 07:51:38;;;;;;;2.08;1.40;;;;;;;8.26;49.52;91822.06;2068369;69;20137;-73
2024/04/25 07:54:04;;;;;;;1.60;1.50;;;;;;;8.22;48.99;91812.69;2071879;69;20232;-72
2024/04/25 07:56:30;;;;;;;1.70;1.40;;;;;;;8.03;47.88;91816.56;2068492;69;20183;-73
2024/04/25 07:58:55;;;;;;;2.45;1.30;;;;;;;7.91;48.62;91816.63;2071878;69;20329;-72
2024/04/25 08:01:21;;;;;;;2.03;1.25;;;;;;;7.85;49.62;91819.09;2071615;69;20182;-70
2024/04/25 08:03:47;;;;;;;2.25;1.17;;;;;;;8.32;48.18;91808.38;2072365;69;20228;-72
2024/04/25 08:06:12;;;;;;;1.25;1.15;;;;;;;8.50;46.35;91810.75;2072170;69;20274;-73
2024/04/25 08:08:39;;;;;;;1.10;1.00;;;;;;;8.79;46.36;91812.97;2072188;69;20143;-74
2024/04/25 08:11:06;;;;;;;1.20;1.10;;;;;;;8.94;46.37;91806.78;2072120;69;20221;-73
2024/04/25 08:13:32;;;;;;;1.83;1.48;;;;;;;8.22;46.99;91807.81;2072258;69;20172;-72
2024/04/25 08:15:57;;;;;;;2.10;1.50;;;;;;;8.54;46.83;91813.78;2072147;69;20147;-73
2024/04/25 08:18:23;;;;;;;1.52;1.05;;;;;;;8.74;46.37;91802.88;2072242;69;20149;-74
2024/04/25 08:20:48;;;;;;;3.05;1.38;;;;;;;9.01;46.07;91807.81;2068546;69;20136;-72
2024/04/25 08:23:15;;;;;;;1.55;1.40;;;;;;;9.07;46.14;91797.63;2068913;69;20318;-72
2024/04/25 08:25:41;;;;;;;2.15;1.52;;;;;;;9.39;46.67;91798.56;2072198;69;20191;-72
2024/04/25 08:28:09;;;;;;;2.47;1.40;;;;;;;9.40;45.49;91794.41;2068840;69;20596;-73
2024/04/25 08:30:35;;;;;;;1.92;1.25;;;;;;;9.00;44.77;91797.94;2072121;69;20205;-72
2024/04/25 08:33:01;;;;;;;2.10;1.10;;;;;;;9.25;45.46;91797.81;2072193;69;20164;-72
2024/04/25 08:35:26;;;;;;;5.00;1.30;;;;;;;8.77;45.22;91801.66;2072200;69;20187;-71
2024/04/25 08:37:52;;;;;;;1.40;1.08;;;;;;;8.38;44.78;91788.38;2068628;69;20152;-71
2024/04/25 08:40:20;;;;;;;1.45;1.20;;;;;;;8.65;45.40;91799.66;2072147;69;20551;-73
2024/04/25 08:42:50;;;;;;;1.10;1.00;;;;;;;8.83;44.31;91790.75;2072252;69;20664;-71
2024/04/25 08:45:18;;;;;;;3.45;2.40;;;;;;;9.36;44.75;91793.47;2072106;69;20594;-73
2024/04/25 08:47:45;;;;;;;2.20;1.40;;;;;;;9.62;44.27;91786.34;2068740;69;20147;-71
2024/04/25 08:50:11;;;;;;;1.38;1.10;;;;;;;10.00;44.85;91778.34;2072226;69;20209;-72
2024/04/25 08:52:40;;;;;;;1.30;1.10;;;;;;;10.17;45.44;91768.56;2068802;69;20574;-72
2024/04/25 08:55:10;;;;;;;2.70;1.27;;;;;;;10.30;44.63;91773.44;2071935;69;20140;-71
2024/04/25 08:57:36;;;;;;;3.50;1.58;;;;;;;9.83;43.12;91773.28;2071812;69;20132;-71
2024/04/25 09:00:03;;;;;;;1.60;1.30;;;;;;;10.16;43.87;91762.22;2072241;69;20466;-73
2024/04/25 09:02:34;;;;;;;2.08;1.80;;;;;;;10.02;42.92;91758.00;2065933;69;20208;-72
2024/04/25 09:05:00;;;;;;;2.45;1.40;;;;;;;10.56;43.52;91764.78;2072299;69;20139;-71
2024/04/25 09:07:27;;;;;;;1.80;1.20;;;;;;;9.97;43.19;91771.16;2072418;69;20136;-72
2024/04/25 09:09:56;;;;;;;2.50;1.30;;;;;;;10.12;42.14;91756.41;2072160;69;20147;-71
2024/04/25 09:12:25;;;;;;;1.75;1.30;;;;;;;9.85;42.13;91760.06;2072257;69;20298;-72
2024/04/25 09:14:51;;;;;;;1.52;1.00;;;;;;;10.21;41.17;91753.97;2071925;69;20147;-73
2024/04/25 09:17:17;;;;;;;1.58;1.30;;;;;;;10.65;41.08;91763.78;2071996;69;20136;-74
2024/04/25 09:19:43;;;;;;;3.15;1.20;;;;;;;10.71;41.38;91768.97;2072085;69;20158;-78
2024/04/25 09:22:12;;;;;;;2.92;1.10;;;;;;;10.71;39.51;91766.13;2072074;69;20151;-74
2024/04/25 09:24:37;;;;;;;1.55;1.00;;;;;;;10.58;38.85;91764.84;2072068;69;20152;-78
2024/04/25 09:27:03;;;;;;;4.78;1.48;;;;;;;10.34;37.33;91756.75;2071869;69;20221;-73
2024/04/25 09:29:30;;;;;;;10.18;1.17;;;;;;;10.45;37.92;91751.63;2071779;69;20144;-73
2024/04/25 09:31:56;;;;;;;2.47;1.10;;;;;;;10.99;35.99;91741.34;2071720;69;20152;-71
2024/04/25 09:34:22;;;;;;;5.80;1.63;;;;;;;10.62;35.65;91757.31;2071972;69;20178;-72
2024/04/25 09:36:50;;;;;;;4.22;1.02;;;;;;;11.14;36.21;91743.44;2068465;69;20155;-71
2024/04/25 09:39:16;;;;;;;1.40;0.80;;;;;;;11.47;35.29;91731.44;2071994;69;20148;-71
2024/04/25 09:41:42;;;;;;;1.63;1.27;;;;;;;12.12;35.89;91742.56;2068658;69;20160;-72
2024/04/25 09:44:08;;;;;;;1.58;0.90;;;;;;;10.78;34.65;91736.91;2068684;69;20180;-72
2024/04/25 09:46:50;;;;;;;2.95;1.30;;;;;;;10.34;34.33;91750.41;2072182;69;20168;-71
2024/04/25 09:49:19;;;;;;;2.55;1.30;;;;;;;10.81;33.85;91744.81;2072152;69;20139;-72
2024/04/25 09:51:59;;;;;;;1.95;1.10;;;;;;;11.94;35.12;91739.75;2072234;69;20231;-71
2024/04/25 09:54:30;;;;;;;2.92;1.00;;;;;;;11.94;33.50;91734.09;2072093;69;20159;-71
2024/04/25 09:57:03;;;;;;;1.10;0.80;;;;;;;11.94;33.80;91736.91;2071978;69;20143;-71
2024/04/25 09:59:32;;;;;;;;;;;;;;;11.85;33.35;91732.31;2072198;69;20292;-72
2024/04/25 10:02:00;;;;;;;0.70;0.70;;;;;;;11.76;35.11;91732.59;2071763;69;20459;-73
2024/04/25 10:04:30;;;;;;;12.88;7.68;;;;;;;11.11;35.04;91728.50;2072022;69;20312;-76
2024/04/25 10:06:59;;;;;;;1.30;0.85;;;;;;;11.80;33.22;91707.41;2072089;69;20156;-72
2024/04/25 10:09:25;;;;;;;1.35;0.85;;;;;;;12.82;33.86;91719.78;2071685;69;20173;-71
2024/04/25 10:11:51;;;;;;;1.73;1.20;;;;;;;12.89;31.42;91722.19;2071870;69;20180;-71
2024/04/25 10:14:27;;;;;;;1.42;0.70;;;;;;;13.78;34.26;91726.00;2071877;69;20513;-71
2024/04/25 10:16:53;;;;;;;1.77;0.85;;;;;;;13.33;32.33;91724.47;2071725;69;20177;-72
2024/04/25 10:19:19;;;;;;;1.45;1.00;;;;;;;14.46;33.54;91718.28;2072021;69;20156;-72
2024/04/25 10:21:47;;;;;;;0.77;0.70;;;;;;;14.93;31.27;91714.03;2072224;69;20498;-73
2024/04/25 10:24:14;;;;;;;2.15;1.40;;;;;;;15.57;29.44;91716.50;2072175;69;20227;-72
2024/04/25 10:26:48;;;;;;;1.17;0.98;;;;;;;14.47;30.01;91711.94;2071992;69;20167;-74
2024/04/25 10:29:14;;;;;;;0.88;0.85;;;;;;;15.44;28.88;91701.25;2071950;69;20240;-74
2024/04/25 10:31:41;;;;;;;1.60;1.30;;;;;;;13.74;30.02;91718.09;2071649;69;20225;-77
2024/04/25 10:34:08;;;;;;;1.30;0.90;;;;;;;14.27;31.63;91699.28;2071642;69;20144;-74
2024/04/25 10:36:35;;;;;;;0.90;0.65;;;;;;;13.50;31.70;91712.34;2071667;69;20239;-74
2024/04/25 10:39:01;;;;;;;0.80;0.80;;;;;;;14.26;31.42;91706.31;2071500;69;20203;-73
2024/04/25 10:41:33;;;;;;;1.00;0.80;;;;;;;13.94;31.27;91701.81;2071620;69;20590;-73
2024/04/25 10:44:02;;;;;;;1.13;0.90;;;;;;;13.42;31.53;91703.56;2071677;69;20141;-72
2024/04/25 10:46:28;;;;;;;1.17;0.68;;;;;;;12.78;31.83;91683.66;2068222;69;20141;-73
2024/04/25 10:48:54;;;;;;;2.47;1.00;;;;;;;12.61;31.91;91696.47;2068615;69;20274;-74
2024/04/25 10:51:20;;;;;;;1.70;1.10;;;;;;;13.10;32.72;91697.50;2071958;69;20250;-72
2024/04/25 10:53:47;;;;;;;1.20;1.02;;;;;;;12.49;31.08;91692.47;2072048;69;20267;-72
2024/04/25 10:56:13;;;;;;;1.50;1.13;;;;;;;12.25;32.70;91697.91;2071851;69;20180;-72
2024/04/25 10:58:57;;;;;;;2.08;1.30;;;;;;;12.65;31.85;91688.16;2071943;69;20515;-74
2024/04/25 11:01:31;;;;;;;2.20;0.90;;;;;;;13.41;31.71;91688.00;2071623;69;20271;-72
2024/04/25 11:03:57;;;;;;;1.48;1.00;;;;;;;13.48;30.86;91692.50;2071766;69;20636;-72
2024/04/25 11:06:24;;;;;;;0.90;0.80;;;;;;;14.70;30.70;91670.16;2068538;69;20156;-73
2024/04/25 11:08:50;;;;;;;0.90;0.90;;;;;;;13.16;30.45;91677.94;2072010;69;20670;-76
2024/04/25 11:11:16;;;;;;;1.98;1.10;;;;;;;14.44;29.99;91676.47;2071805;69;20561;-72
2024/04/25 11:13:42;;;;;;;1.00;0.90;;;;;;;19.45;26.24;91679.22;2071978;69;20186;-73
2024/04/25 11:16:08;;;;;;;1.13;0.80;;;;;;;16.22;27.51;91664.97;2071690;69;20175;-75
2024/04/25 11:18:35;;;;;;;0.82;0.52;;;;;;;16.09;28.25;91673.88;2071551;69;20222;-72
2024/04/25 11:21:02;;;;;;;1.98;0.90;;;;;;;16.73;27.83;91668.25;2068428;69;20568;-73
2024/04/25 11:23:30;;;;;;;1.27;0.82;;;;;;;15.73;28.23;91654.53;2071783;69;20206;-76
2024/04/25 11:26:01;;;;;;;0.82;0.77;;;;;;;19.55;28.85;91665.78;2071952;69;20144;-74
2024/04/25 11:28:27;;;;;;;0.80;0.70;;;;;;;25.00;22.48;91669.38;2071807;69;20144;-73
2024/04/25 11:30:54;;;;;;;1.13;0.70;;;;;;;19.75;23.96;91661.75;2071650;69;20555;-73
2024/04/25 11:33:22;;;;;;;0.82;0.80;;;;;;;20.01;23.67;91650.56;2071805;69;20556;-73
2024/04/25 11:35:48;;;;;;;0.60;0.60;;;;;;;20.08;24.41;91647.78;2071798;69;20148;-74
2024/04/25 11:38:17;;;;;;;0.88;0.60;;;;;;;24.30;22.56;91657.69;2068078;69;20205;-75